Time;durP1;ratioP1;P1;durP2;ratioP2;P2;SDS_P1;SDS_P2;PMS_P1;PMS_P2;Temp;Humidity;BMP_temperature;BMP_pressure;BME280_temperature;BME280_humidity;BME280_pressure;Samples;Min_cycle;Max_cycle;Signal;HPM_P1;HPM_P2
2022/05/03 06:53:14;;;;;;;20.95;8.90;;;9.60;99.90;;;;;;5150195;27;20116;-65
2022/05/03 06:55:39;;;;;;;28.85;9.45;;;9.50;99.90;;;;;;5116061;27;20043;-62
2022/05/03 06:58:05;;;;;;;26.88;8.07;;;9.50;99.90;;;;;;5116279;27;20458;-65
2022/05/03 07:00:31;;;;;;;20.83;7.68;;;9.60;99.90;;;;;;5114099;27;20526;-63
2022/05/03 07:02:56;;;;;;;24.02;8.63;;;9.70;99.90;;;;;;5119959;27;20049;-63
2022/05/03 07:05:22;;;;;;;26.10;8.40;;;9.70;99.90;;;;;;5109575;27;20053;-63
2022/05/03 07:07:48;;;;;;;25.55;7.68;;;9.80;99.90;;;;;;5122783;27;20043;-63
2022/05/03 07:10:14;;;;;;;26.75;8.20;;;9.80;99.90;;;;;;5097234;27;20097;-63
2022/05/03 07:12:39;;;;;;;21.38;7.45;;;9.90;99.90;;;;;;5128116;27;20044;-63
2022/05/03 07:15:06;;;;;;;20.67;7.68;;;10.00;99.90;;;;;;5122434;27;20055;-64
2022/05/03 07:23:00;;;;;;;;;;;10.10;99.90;;;;;;5129783;27;20034;-64
2022/05/03 07:25:26;;;;;;;17.27;5.78;;;10.20;99.90;;;;;;5118240;27;19930;-63
2022/05/03 07:27:52;;;;;;;20.50;6.05;;;10.30;99.90;;;;;;5121271;27;21506;-64
2022/05/03 07:30:18;;;;;;;13.50;4.90;;;10.30;99.90;;;;;;5131537;27;20486;-65
2022/05/03 07:32:45;;;;;;;12.20;4.93;;;10.40;99.90;;;;;;5130148;27;20305;-61
2022/05/03 07:35:12;;;;;;;16.38;4.97;;;10.40;99.90;;;;;;5134372;27;20043;-64
2022/05/03 07:37:39;;;;;;;18.35;5.65;;;10.40;99.90;;;;;;5138267;27;20392;-62
2022/05/03 07:40:06;;;;;;;16.05;4.90;;;10.40;99.90;;;;;;5137467;27;20043;-62
2022/05/03 07:42:32;;;;;;;17.13;5.60;;;10.40;99.90;;;;;;5129254;27;20043;-63
2022/05/03 07:44:58;;;;;;;16.27;5.05;;;10.40;99.90;;;;;;5126235;27;20507;-64
2022/05/03 07:47:24;;;;;;;18.65;5.40;;;10.40;99.90;;;;;;5131686;27;20130;-63
2022/05/03 07:49:50;;;;;;;13.75;4.55;;;10.50;99.90;;;;;;5118446;27;20424;-66
2022/05/03 07:52:16;;;;;;;11.60;4.47;;;10.60;99.90;;;;;;5133249;27;20035;-63
2022/05/03 07:54:44;;;;;;;15.07;4.40;;;10.70;99.90;;;;;;5110792;27;20039;-65
2022/05/03 07:57:11;;;;;;;15.95;4.50;;;10.70;99.90;;;;;;5135957;27;20503;-62
2022/05/03 07:59:37;;;;;;;15.63;3.97;;;10.80;99.90;;;;;;5116598;27;20058;-61
2022/05/03 08:02:02;;;;;;;15.70;4.45;;;10.90;99.90;;;;;;5122366;27;20047;-62
2022/05/03 08:04:28;;;;;;;14.68;3.78;;;11.00;99.90;;;;;;5126213;27;20060;-64
2022/05/03 08:06:54;;;;;;;14.45;4.03;;;11.00;99.90;;;;;;5135844;27;20039;-60
2022/05/03 08:09:20;;;;;;;16.85;4.72;;;11.00;99.90;;;;;;5116675;27;20125;-61
2022/05/03 08:11:45;;;;;;;13.18;3.63;;;11.10;99.90;;;;;;5120382;27;20068;-62
2022/05/03 08:14:11;;;;;;;11.85;3.58;;;11.10;99.90;;;;;;5108271;27;20066;-63
2022/05/03 08:16:38;;;;;;;12.95;3.80;;;11.10;99.90;;;;;;5115870;27;20046;-65
2022/05/03 08:19:04;;;;;;;21.10;3.85;;;11.10;99.90;;;;;;5119427;27;20050;-62
2022/05/03 08:21:32;;;;;;;14.30;3.83;;;11.20;99.90;;;;;;5110606;27;20119;-65
2022/05/03 08:23:59;;;;;;;13.50;3.35;;;11.20;99.90;;;;;;5123136;27;20047;-62
2022/05/03 08:26:25;;;;;;;16.23;3.25;;;11.10;99.90;;;;;;5116186;27;20054;-62
2022/05/03 08:28:51;;;;;;;14.55;3.50;;;11.10;99.90;;;;;;5138100;27;20374;-63
2022/05/03 08:31:16;;;;;;;18.20;4.50;;;11.20;99.90;;;;;;5114424;27;20035;-64
2022/05/03 08:33:47;;;;;;;17.58;4.63;;;11.20;99.90;;;;;;5124043;27;20050;-64
2022/05/03 08:36:14;;;;;;;18.10;3.95;;;11.30;99.90;;;;;;5115918;27;20150;-64
2022/05/03 08:44:08;;;;;;;12.88;3.80;;;11.40;99.90;;;;;;5117549;27;19946;-62
2022/05/03 08:46:36;;;;;;;14.40;3.97;;;11.40;99.90;;;;;;5116566;27;20108;-63
2022/05/03 08:49:04;;;;;;;15.18;3.63;;;11.50;99.90;;;;;;5112261;27;20073;-62
2022/05/03 08:51:32;;;;;;;26.30;4.90;;;11.50;99.90;;;;;;5115075;27;20477;-66
2022/05/03 08:53:59;;;;;;;16.45;4.00;;;11.50;99.90;;;;;;5121417;27;20058;-66
2022/05/03 08:56:26;;;;;;;15.50;3.22;;;11.50;99.90;;;;;;5116905;27;20071;-66
2022/05/03 08:58:52;;;;;;;13.70;3.42;;;11.60;99.90;;;;;;5112223;27;20062;-64
2022/05/03 09:01:18;;;;;;;17.63;3.45;;;11.60;99.90;;;;;;5112033;27;20505;-64
2022/05/03 09:03:44;;;;;;;10.18;3.30;;;11.70;99.90;;;;;;5134523;27;20045;-60
2022/05/03 09:06:10;;;;;;;12.10;3.13;;;11.70;99.90;;;;;;5113473;27;20126;-63
2022/05/03 09:08:37;;;;;;;7.97;3.20;;;12.00;99.90;;;;;;5075898;27;20035;-68
2022/05/03 09:11:16;;;;;;;14.40;3.42;;;11.70;99.90;;;;;;5104796;27;20099;-67
2022/05/03 09:13:44;;;;;;;8.98;2.85;;;11.80;99.90;;;;;;5115857;27;20196;-65
2022/05/03 09:16:18;;;;;;;13.93;3.20;;;11.80;99.90;;;;;;5093852;27;20039;-64
2022/05/03 09:18:46;;;;;;;11.57;3.28;;;12.00;99.90;;;;;;5118906;27;20126;-72
2022/05/03 09:24:05;;;;;;;10.20;3.15;;;12.10;99.90;;;;;;5119245;27;20200;-65
2022/05/03 09:26:32;;;;;;;10.13;3.53;;;12.10;99.80;;;;;;5109632;27;20046;-65
2022/05/03 09:29:05;;;;;;;11.50;2.85;;;12.10;99.60;;;;;;5098417;27;20496;-64
2022/05/03 09:31:39;;;;;;;23.50;5.00;;;12.20;99.60;;;;;;5115777;27;20048;-64
2022/05/03 09:34:19;;;;;;;15.50;3.03;;;12.20;99.40;;;;;;5111851;27;20043;-65
2022/05/03 09:37:09;;;;;;;10.48;2.50;;;12.40;99.50;;;;;;5114252;27;20047;-61
2022/05/03 09:39:41;;;;;;;16.77;3.50;;;12.40;99.10;;;;;;5118543;27;20039;-63
2022/05/03 09:42:11;;;;;;;13.98;3.13;;;12.50;99.10;;;;;;5105855;27;20229;-62
2022/05/03 09:44:52;;;;;;;12.43;3.33;;;12.60;99.00;;;;;;5108416;27;20055;-63
2022/05/03 09:47:20;;;;;;;13.00;3.33;;;12.60;98.70;;;;;;5110056;27;20498;-66
2022/05/03 09:49:45;;;;;;;8.43;3.00;;;12.60;97.60;;;;;;5116405;27;20048;-63
2022/05/03 09:52:36;;;;;;;10.35;2.97;;;12.50;97.40;;;;;;5109466;27;20035;-65
2022/05/03 09:55:07;;;;;;;9.07;2.50;;;12.50;97.20;;;;;;5112483;27;20043;-63
2022/05/03 09:57:41;;;;;;;10.85;2.80;;;12.40;96.50;;;;;;5110360;27;20130;-62
2022/05/03 10:00:08;;;;;;;;;;;12.40;96.80;;;;;;5118481;27;20066;-63
2022/05/03 10:02:37;;;;;;;8.25;3.35;;;12.50;96.70;;;;;;5122451;27;20367;-63
2022/05/03 10:05:03;;;;;;;9.98;3.03;;;12.60;97.20;;;;;;5106522;27;20051;-63
2022/05/03 10:07:32;;;;;;;11.38;3.20;;;12.60;96.40;;;;;;5114039;27;20377;-64
2022/05/03 10:09:58;;;;;;;13.15;3.40;;;12.60;96.70;;;;;;5112598;27;20370;-63
2022/05/03 10:12:23;;;;;;;11.40;3.13;;;12.50;96.00;;;;;;5115520;27;20118;-64
2022/05/03 10:14:50;;;;;;;13.02;3.15;;;12.60;95.80;;;;;;5109453;27;20047;-62
2022/05/03 10:20:38;;;;;;;11.10;2.85;;;12.70;95.90;;;;;;5114437;27;20272;-63
2022/05/03 10:23:17;;;;;;;6.93;2.25;;;12.80;95.60;;;;;;5121087;27;20390;-62
2022/05/03 10:25:42;;;;;;;8.05;2.67;;;12.80;95.20;;;;;;5090115;28;20474;-62
2022/05/03 10:28:08;;;;;;;10.65;2.28;;;12.80;94.60;;;;;;5100981;27;20031;-63
2022/05/03 10:30:38;;;;;;;9.50;3.00;;;13.00;94.90;;;;;;5109411;27;20038;-62
2022/05/03 10:33:19;;;;;;;7.97;2.45;;;13.00;93.90;;;;;;5095107;27;20363;-63
2022/05/03 10:35:49;;;;;;;8.80;2.47;;;13.00;94.10;;;;;;5096740;27;20048;-62
2022/05/03 10:38:15;;;;;;;12.88;2.65;;;12.90;93.50;;;;;;5113179;27;20029;-62
2022/05/03 10:40:43;;;;;;;8.32;2.00;;;12.80;93.10;;;;;;5113352;27;20038;-62
2022/05/03 10:43:11;;;;;;;12.68;3.05;;;12.90;93.40;;;;;;5119950;27;20043;-63
2022/05/03 10:45:57;;;;;;;8.90;2.55;;;12.90;93.10;;;;;;5095035;27;20108;-63
2022/05/03 10:48:27;;;;;;;7.03;2.40;;;13.00;92.80;;;;;;5110853;27;20050;-64
2022/05/03 10:51:00;;;;;;;9.65;2.70;;;13.00;92.70;;;;;;5099179;28;20047;-62
2022/05/03 10:53:27;;;;;;;7.20;2.50;;;13.00;93.00;;;;;;5099640;27;20143;-65
2022/05/03 10:56:10;;;;;;;6.30;2.00;;;13.10;92.80;;;;;;5098144;27;20047;-65
2022/05/03 10:58:38;;;;;;;9.70;2.60;;;13.10;92.30;;;;;;5077538;28;20039;-62
2022/05/03 11:01:11;;;;;;;5.75;2.60;;;13.10;92.10;;;;;;5092851;27;20050;-63
2022/05/03 11:03:37;;;;;;;11.80;3.37;;;13.10;92.00;;;;;;5111391;27;20497;-63
2022/05/03 11:06:26;;;;;;;6.82;2.22;;;13.20;92.40;;;;;;5118029;27;20050;-64
2022/05/03 11:09:18;;;;;;;11.75;2.35;;;13.20;90.00;;;;;;5105779;27;20039;-64
2022/05/03 11:11:43;;;;;;;6.45;2.00;;;13.30;90.90;;;;;;5107941;27;20144;-64
2022/05/03 11:14:18;;;;;;;6.95;2.10;;;13.50;91.60;;;;;;5108607;27;20226;-65
2022/05/03 11:16:45;;;;;;;17.85;3.28;;;13.70;91.10;;;;;;5100824;27;20120;-63
2022/05/03 11:19:13;;;;;;;11.10;2.20;;;13.80;90.40;;;;;;5115503;27;20088;-66
2022/05/03 11:21:39;;;;;;;16.40;3.25;;;13.70;89.40;;;;;;5093101;27;20053;-64
2022/05/03 11:24:15;;;;;;;12.52;2.28;;;13.70;89.00;;;;;;5098803;27;20035;-64
2022/05/03 11:26:41;;;;;;;16.75;3.25;;;13.70;90.20;;;;;;5100195;28;20513;-63
2022/05/03 11:29:07;;;;;;;6.85;1.77;;;13.70;90.10;;;;;;5099940;28;20047;-62
2022/05/03 11:31:33;;;;;;;10.13;2.25;;;13.50;88.50;;;;;;5103137;27;20262;-66
2022/05/03 11:33:59;;;;;;;6.60;2.20;;;13.50;90.30;;;;;;5103142;27;20039;-62
2022/05/03 11:36:27;;;;;;;7.03;2.05;;;13.60;90.20;;;;;;5106706;27;20437;-65
2022/05/03 11:38:54;;;;;;;9.65;1.90;;;13.70;90.20;;;;;;5102036;27;22331;-64
2022/05/03 11:41:21;;;;;;;8.55;1.83;;;13.70;90.30;;;;;;5120153;27;20066;-65
2022/05/03 11:43:47;;;;;;;9.52;2.17;;;13.90;90.50;;;;;;5124350;27;20043;-63
2022/05/03 11:46:18;;;;;;;7.88;2.10;;;14.00;90.00;;;;;;5104040;27;20062;-60
2022/05/03 11:48:52;;;;;;;11.95;2.00;;;13.80;88.30;;;;;;5111558;27;20391;-63
2022/05/03 11:57:08;;;;;;;6.90;2.25;;;14.10;86.20;;;;;;5106523;27;20035;-64
2022/05/03 11:59:34;;;;;;;11.02;4.25;;;14.20;88.50;;;;;;5108823;27;20097;-65
2022/05/03 12:02:17;;;;;;;6.03;1.85;;;14.30;86.80;;;;;;5115835;27;20078;-62
2022/05/03 12:05:04;;;;;;;12.52;2.55;;;14.30;86.10;;;;;;5098571;27;20131;-65
2022/05/03 12:07:42;;;;;;;7.40;2.08;;;14.50;86.10;;;;;;5103474;27;20041;-62
2022/05/03 12:10:37;;;;;;;10.00;2.95;;;14.40;83.90;;;;;;5106612;27;20052;-63
2022/05/03 12:13:17;;;;;;;7.55;2.05;;;14.10;83.30;;;;;;5118580;27;20039;-66
2022/05/03 12:15:56;;;;;;;6.68;2.00;;;14.00;82.80;;;;;;5108376;27;20066;-62
2022/05/03 12:18:35;;;;;;;6.47;1.92;;;14.00;83.20;;;;;;5106500;27;20568;-63
2022/05/03 12:21:07;;;;;;;5.82;1.80;;;13.80;83.10;;;;;;5112920;27;20067;-60
2022/05/03 12:23:33;;;;;;;9.32;2.90;;;13.90;85.00;;;;;;5096076;27;20622;-70
2022/05/03 12:26:01;;;;;;;10.25;2.75;;;14.00;84.20;;;;;;5096704;27;20027;-68
2022/05/03 12:28:48;;;;;;;10.35;2.25;;;14.10;84.90;;;;;;5107599;27;20086;-63
2022/05/03 12:31:16;;;;;;;7.70;2.30;;;14.00;81.80;;;;;;5103838;27;20122;-62
2022/05/03 12:33:53;;;;;;;10.38;2.15;;;13.90;83.40;;;;;;5104241;27;20501;-61
2022/05/03 12:37:00;;;;;;;5.78;1.80;;;13.90;83.50;;;;;;5085656;27;20039;-63
2022/05/03 12:39:26;;;;;;;8.45;2.42;;;13.90;79.80;;;;;;5069626;27;20059;-62
2022/05/03 12:42:08;;;;;;;5.90;2.05;;;13.90;82.20;;;;;;5085839;27;20050;-64
2022/05/03 12:44:47;;;;;;;8.93;2.00;;;14.20;82.30;;;;;;5104316;27;20046;-65
2022/05/03 12:47:13;;;;;;;6.43;1.90;;;14.30;82.10;;;;;;5098924;27;20278;-61
2022/05/03 12:49:39;;;;;;;9.07;2.13;;;14.00;78.80;;;;;;5102411;27;20046;-64
2022/05/03 12:52:05;;;;;;;7.93;2.13;;;13.90;79.30;;;;;;5108711;27;20505;-63
2022/05/03 12:54:31;;;;;;;7.53;2.05;;;14.00;80.80;;;;;;5097420;27;20134;-62
2022/05/03 12:59:42;;;;;;;5.93;1.83;;;14.90;82.40;;;;;;5096473;27;20086;-63
2022/05/03 13:02:07;;;;;;;9.05;2.00;;;15.50;82.10;;;;;;5126487;27;20533;-64
2022/05/03 13:04:33;;;;;;;10.80;2.25;;;15.70;80.50;;;;;;5101040;27;20047;-62
2022/05/03 13:07:00;;;;;;;6.05;1.80;;;15.90;79.30;;;;;;5104343;27;20031;-65
2022/05/03 13:09:27;;;;;;;8.65;2.08;;;16.30;78.90;;;;;;5112103;27;20058;-64
2022/05/03 13:11:53;;;;;;;4.47;1.80;;;16.20;74.70;;;;;;5099687;28;20509;-65
2022/05/03 13:14:19;;;;;;;5.93;2.22;;;15.70;74.20;;;;;;5113169;27;20042;-65
2022/05/03 13:16:45;;;;;;;8.20;2.10;;;15.70;75.50;;;;;;5115258;27;20524;-64
2022/05/03 13:19:13;;;;;;;6.28;2.17;;;15.70;73.90;;;;;;5099066;27;20488;-65
2022/05/03 13:21:43;;;;;;;5.85;1.90;;;15.60;72.50;;;;;;5113197;27;20043;-66
2022/05/03 13:24:09;;;;;;;9.65;2.65;;;15.40;73.20;;;;;;5118622;27;20565;-63
2022/05/03 13:26:36;;;;;;;8.18;2.15;;;15.40;74.00;;;;;;5122652;27;20027;-63
2022/05/03 13:29:04;;;;;;;6.65;1.98;;;15.50;73.30;;;;;;5097227;27;20037;-63
2022/05/03 13:31:30;;;;;;;10.15;2.47;;;15.40;72.30;;;;;;5120779;27;20043;-64
2022/05/03 13:33:56;;;;;;;7.35;2.20;;;15.40;73.20;;;;;;5132759;27;20046;-63
2022/05/03 13:41:51;;;;;;;9.75;2.30;;;15.50;72.30;;;;;;5112625;27;20047;-64
2022/05/03 13:44:17;;;;;;;12.32;2.38;;;15.20;72.30;;;;;;5116143;27;20043;-67
2022/05/03 13:46:42;;;;;;;7.00;2.10;;;15.00;72.30;;;;;;5099656;27;20219;-63
2022/05/03 13:49:08;;;;;;;6.55;2.20;;;14.50;72.00;;;;;;5119105;27;20047;-63
2022/05/03 13:51:34;;;;;;;12.48;2.40;;;14.50;74.70;;;;;;5118169;27;20056;-65
2022/05/03 13:53:59;;;;;;;8.48;2.00;;;14.50;74.70;;;;;;5113001;27;20442;-64
2022/05/03 13:56:26;;;;;;;7.63;2.05;;;14.30;72.70;;;;;;5095582;27;20089;-63
2022/05/03 13:58:53;;;;;;;9.80;2.13;;;14.30;73.50;;;;;;5118628;27;20055;-66
2022/05/03 14:01:20;;;;;;;7.22;2.42;;;14.40;73.70;;;;;;5113290;27;20083;-64
2022/05/03 14:03:45;;;;;;;7.53;2.42;;;14.60;73.70;;;;;;5117300;27;20036;-63
2022/05/03 14:06:11;;;;;;;6.30;2.25;;;14.60;72.40;;;;;;5119051;27;20433;-64
2022/05/03 14:08:37;;;;;;;8.20;2.05;;;14.60;72.40;;;;;;5116387;27;20184;-64
2022/05/03 14:11:03;;;;;;;9.15;2.65;;;14.70;73.40;;;;;;5110053;27;20043;-63
2022/05/03 14:13:29;;;;;;;5.50;2.40;;;14.80;72.00;;;;;;5118663;27;20039;-65
2022/05/03 14:15:54;;;;;;;5.20;1.80;;;14.60;72.30;;;;;;5118945;27;20043;-63
2022/05/03 14:18:22;;;;;;;6.95;2.13;;;14.60;71.90;;;;;;5110380;27;20390;-62
2022/05/03 14:20:48;;;;;;;7.88;1.77;;;14.40;72.70;;;;;;5116306;27;20043;-63
2022/05/03 14:23:13;;;;;;;10.35;2.45;;;14.40;73.30;;;;;;5109425;27;20058;-63
2022/05/03 14:25:40;;;;;;;10.32;2.15;;;14.40;73.50;;;;;;5119062;27;20042;-62
2022/05/03 14:28:06;;;;;;;10.18;2.50;;;14.30;73.30;;;;;;5116836;27;20556;-68
2022/05/03 14:30:32;;;;;;;12.25;3.35;;;14.30;73.50;;;;;;5118050;27;20047;-66
2022/05/03 14:32:58;;;;;;;8.52;2.30;;;14.30;73.90;;;;;;5099265;28;20051;-64
2022/05/03 14:35:24;;;;;;;8.35;2.35;;;14.40;74.80;;;;;;5111950;27;20050;-63
2022/05/03 14:37:50;;;;;;;6.97;1.90;;;14.30;73.40;;;;;;5116764;27;20264;-64
2022/05/03 14:40:16;;;;;;;8.23;2.47;;;14.40;73.60;;;;;;5113221;27;20155;-64
2022/05/03 14:42:41;;;;;;;8.60;2.13;;;14.40;74.00;;;;;;5118068;27;20054;-65
2022/05/03 14:45:11;;;;;;;9.10;2.10;;;14.30;73.10;;;;;;5113428;27;20048;-65
2022/05/03 14:47:37;;;;;;;7.07;1.90;;;14.20;74.30;;;;;;5112177;27;20050;-63
2022/05/03 14:50:03;;;;;;;7.07;2.50;;;14.10;74.40;;;;;;5118825;27;20043;-62
2022/05/03 14:52:31;;;;;;;6.82;2.40;;;14.10;74.50;;;;;;5113507;27;20044;-63
2022/05/03 14:54:57;;;;;;;10.02;2.03;;;14.10;74.10;;;;;;5110635;27;20106;-63
2022/05/03 15:02:57;;;;;;;8.68;1.80;;;14.10;70.60;;;;;;5106454;28;19915;-63
2022/05/03 15:05:23;;;;;;;7.20;1.80;;;13.80;73.30;;;;;;5094288;28;20067;-66
2022/05/03 15:07:50;;;;;;;4.10;1.75;;;13.70;73.00;;;;;;5111748;28;20058;-63
2022/05/03 15:10:16;;;;;;;10.07;2.05;;;13.70;73.50;;;;;;5108972;28;20043;-64
2022/05/03 15:12:45;;;;;;;11.88;2.30;;;13.80;73.90;;;;;;5116050;27;20039;-63
2022/05/03 15:15:16;;;;;;;7.05;1.77;;;13.80;74.10;;;;;;5118361;27;20039;-63
2022/05/03 15:17:49;;;;;;;6.60;2.03;;;13.70;73.40;;;;;;5100577;27;20050;-66
2022/05/03 15:20:17;;;;;;;6.28;2.10;;;13.70;73.30;;;;;;5106106;27;20134;-65
2022/05/03 15:25:28;;;;;;;6.85;2.17;;;13.60;73.80;;;;;;5111913;27;20047;-63
2022/05/03 15:27:54;;;;;;;8.27;2.15;;;13.70;75.50;;;;;;5115688;27;20487;-65
2022/05/03 15:30:21;;;;;;;8.55;2.65;;;13.60;73.70;;;;;;5108486;27;20101;-65
2022/05/03 15:32:47;;;;;;;9.68;2.60;;;13.40;72.90;;;;;;5108949;27;20038;-63
2022/05/03 15:35:14;;;;;;;10.13;2.25;;;13.40;74.00;;;;;;5109492;27;20051;-64
2022/05/03 15:37:40;;;;;;;11.07;2.80;;;13.50;74.40;;;;;;5107380;27;20515;-64
2022/05/03 15:40:09;;;;;;;8.88;2.67;;;13.40;73.90;;;;;;5102334;27;20062;-63
2022/05/03 15:42:35;;;;;;;16.25;2.92;;;13.30;74.90;;;;;;5103942;27;20054;-67
2022/05/03 15:45:03;;;;;;;8.05;2.10;;;13.30;74.50;;;;;;5122294;27;20522;-65
2022/05/03 15:47:34;;;;;;;9.50;2.38;;;13.10;74.30;;;;;;5110843;27;20042;-64
2022/05/03 15:50:03;;;;;;;7.45;2.30;;;12.90;75.40;;;;;;5106015;27;20063;-62
2022/05/03 15:52:30;;;;;;;8.43;2.10;;;12.80;75.60;;;;;;5111178;27;20752;-64
2022/05/03 15:54:56;;;;;;;8.15;2.30;;;12.70;76.40;;;;;;5104699;27;20051;-66
2022/05/03 15:57:23;;;;;;;8.68;2.35;;;12.70;76.70;;;;;;5097611;27;20028;-63
2022/05/03 15:59:49;;;;;;;10.85;2.58;;;12.80;76.40;;;;;;5114035;27;20049;-63
2022/05/03 16:02:15;;;;;;;11.82;2.75;;;12.70;75.00;;;;;;5108608;27;20122;-63
2022/05/03 16:04:41;;;;;;;8.57;2.25;;;12.60;76.50;;;;;;5096326;27;20184;-65
2022/05/03 16:07:10;;;;;;;9.00;2.92;;;12.50;76.20;;;;;;5109176;27;20609;-64
2022/05/03 16:09:36;;;;;;;7.30;2.25;;;12.40;76.30;;;;;;5106374;27;20027;-69
2022/05/03 16:12:04;;;;;;;5.88;2.10;;;12.50;77.10;;;;;;5054860;22;20454;-57
2022/05/03 16:14:32;;;;;;;10.65;2.53;;;12.50;77.70;;;;;;4992578;28;20053;-59
2022/05/03 16:16:58;;;;;;;11.57;2.90;;;12.50;76.70;;;;;;4997564;28;20446;-59
2022/05/03 16:19:24;;;;;;;11.07;2.33;;;12.50;77.40;;;;;;4992622;28;20605;-59
2022/05/03 16:21:51;;;;;;;6.43;1.67;;;12.40;76.60;;;;;;5013507;28;20132;-63
2022/05/03 16:24:17;;;;;;;8.30;1.95;;;12.30;76.60;;;;;;4985853;28;20064;-59
2022/05/03 16:26:46;;;;;;;11.45;3.00;;;12.30;77.60;;;;;;5002847;28;20580;-59
2022/05/03 16:29:18;;;;;;;7.97;2.42;;;12.30;77.40;;;;;;4990704;28;20064;-58
2022/05/03 16:31:45;;;;;;;7.25;2.03;;;12.40;77.70;;;;;;4988703;28;20045;-59
2022/05/03 16:34:12;;;;;;;8.10;2.03;;;12.40;77.20;;;;;;4978617;28;20060;-59
2022/05/03 16:42:09;;;;;;;9.23;2.35;;;12.10;77.40;;;;;;4998813;28;20081;-62
2022/05/03 16:44:36;;;;;;;11.90;2.53;;;12.00;77.30;;;;;;4981125;28;20549;-60
2022/05/03 16:47:03;;;;;;;9.68;2.00;;;11.90;78.00;;;;;;4997306;28;20637;-59
2022/05/03 16:49:29;;;;;;;7.82;2.10;;;11.90;78.70;;;;;;4998188;28;20045;-59
2022/05/03 16:51:55;;;;;;;10.70;2.08;;;11.90;78.60;;;;;;4988036;28;20033;-58
2022/05/03 16:54:22;;;;;;;12.20;2.22;;;11.80;78.60;;;;;;4991913;28;20408;-59
2022/05/03 16:56:49;;;;;;;14.57;2.97;;;11.80;78.70;;;;;;5007227;28;20152;-62
2022/05/03 16:59:16;;;;;;;11.05;2.10;;;11.90;78.80;;;;;;4993035;28;20145;-59
2022/05/03 17:01:46;;;;;;;11.88;2.67;;;11.90;79.00;;;;;;4997496;28;20047;-60
2022/05/03 17:04:14;;;;;;;8.90;2.20;;;11.80;79.60;;;;;;5003756;28;20072;-59
2022/05/03 17:06:40;;;;;;;11.57;2.60;;;11.90;79.50;;;;;;4979581;28;20069;-59
2022/05/03 17:09:07;;;;;;;7.30;2.00;;;11.90;79.80;;;;;;5003303;28;20053;-59
2022/05/03 17:11:38;;;;;;;11.77;2.70;;;11.90;79.80;;;;;;4996892;28;20375;-61
2022/05/03 17:14:12;;;;;;;10.75;2.72;;;11.90;79.90;;;;;;5015803;28;20421;-59
2022/05/03 17:16:38;;;;;;;;;;;11.90;79.30;;;;;;5002111;28;20040;-59
2022/05/03 17:19:05;;;;;;;9.23;2.25;;;11.80;78.70;;;;;;5003886;28;19947;-58
2022/05/03 17:21:34;;;;;;;9.52;2.47;;;11.70;79.50;;;;;;5005324;28;20044;-62
2022/05/03 17:24:00;;;;;;;7.30;2.38;;;11.70;80.60;;;;;;5022023;28;20099;-59
2022/05/03 17:26:26;;;;;;;8.88;2.78;;;11.70;80.40;;;;;;4988628;28;20048;-60
2022/05/03 17:28:52;;;;;;;14.50;2.63;;;11.70;80.40;;;;;;4987343;28;20034;-60
2022/05/03 17:31:21;;;;;;;6.75;2.10;;;11.70;80.20;;;;;;4986059;28;20500;-59
2022/05/03 17:33:50;;;;;;;11.55;2.30;;;11.60;80.40;;;;;;4985903;28;20485;-59
2022/05/03 17:36:17;;;;;;;11.77;2.78;;;11.60;80.80;;;;;;5006771;28;20131;-62
2022/05/03 17:38:44;;;;;;;7.85;2.15;;;11.60;81.10;;;;;;4985472;28;20298;-60
2022/05/03 17:41:13;;;;;;;17.20;3.40;;;11.60;80.90;;;;;;5003869;28;20443;-59
2022/05/03 17:43:40;;;;;;;11.80;2.30;;;11.50;81.00;;;;;;5005243;28;20034;-59
2022/05/03 17:46:07;;;;;;;10.77;2.58;;;11.60;81.10;;;;;;4986570;28;20052;-58
2022/05/03 17:48:33;;;;;;;10.38;2.22;;;11.60;81.10;;;;;;5008541;28;20073;-61
2022/05/03 17:50:59;;;;;;;6.28;2.13;;;11.60;80.60;;;;;;4993222;28;20163;-62
2022/05/03 17:56:09;;;;;;;11.23;2.60;;;11.50;80.30;;;;;;5001254;28;20054;-59
2022/05/03 17:58:35;;;;;;;9.93;2.53;;;11.30;80.40;;;;;;5021561;28;20048;-60
2022/05/03 18:01:02;;;;;;;9.93;2.60;;;11.30;80.60;;;;;;5007830;28;20257;-62
2022/05/03 18:03:28;;;;;;;12.70;3.08;;;11.20;81.00;;;;;;5005545;28;20154;-60
2022/05/03 18:05:54;;;;;;;10.98;3.00;;;11.30;81.70;;;;;;4990088;28;20085;-60
2022/05/03 18:08:20;;;;;;;9.75;3.55;;;11.30;81.90;;;;;;4987357;28;20084;-59
2022/05/03 18:10:46;;;;;;;13.73;2.88;;;11.30;81.70;;;;;;4986212;28;20060;-60
2022/05/03 18:13:12;;;;;;;12.38;2.67;;;11.20;81.50;;;;;;5009207;28;20165;-60
2022/05/03 18:15:39;;;;;;;11.02;2.40;;;11.20;81.80;;;;;;4992421;28;20524;-61
2022/05/03 18:18:08;;;;;;;13.65;3.42;;;11.10;82.20;;;;;;4998996;28;20042;-61
2022/05/03 18:20:35;;;;;;;11.70;2.65;;;11.00;82.10;;;;;;4970323;28;20558;-60
2022/05/03 18:23:01;;;;;;;15.23;2.83;;;10.90;82.40;;;;;;4996261;28;20056;-59
2022/05/03 18:25:27;;;;;;;12.30;2.70;;;10.90;83.20;;;;;;4990891;28;21611;-59
2022/05/03 18:27:53;;;;;;;7.38;2.17;;;10.90;83.50;;;;;;4988206;28;20633;-60
2022/05/03 18:30:22;;;;;;;8.88;2.50;;;11.00;83.50;;;;;;5005539;28;20038;-62
2022/05/03 18:32:49;;;;;;;7.45;2.53;;;10.90;82.50;;;;;;4980644;28;20045;-60
2022/05/03 18:35:16;;;;;;;10.73;2.47;;;10.80;82.50;;;;;;4985232;28;20077;-60
2022/05/03 18:37:42;;;;;;;10.20;2.65;;;10.80;81.90;;;;;;4985608;28;20042;-60
2022/05/03 18:40:08;;;;;;;11.48;2.92;;;10.70;82.60;;;;;;4986260;28;20037;-60
2022/05/03 18:42:34;;;;;;;9.32;2.80;;;10.70;82.80;;;;;;4993004;28;20120;-60
2022/05/03 18:45:00;;;;;;;12.93;2.53;;;10.60;83.00;;;;;;5012595;28;20240;-61
2022/05/03 18:47:26;;;;;;;13.45;3.00;;;10.70;82.80;;;;;;4983365;28;20516;-60
2022/05/03 18:49:51;;;;;;;11.38;2.78;;;10.60;82.90;;;;;;5016711;28;20083;-59
2022/05/03 18:52:17;;;;;;;11.80;2.63;;;10.60;83.10;;;;;;4978745;28;20033;-59
2022/05/03 18:57:27;;;;;;;7.25;2.22;;;10.60;83.50;;;;;;5002314;28;20162;-57
2022/05/03 18:59:53;;;;;;;14.18;2.80;;;10.50;83.30;;;;;;5017843;28;20037;-58
2022/05/03 19:02:19;;;;;;;9.55;3.33;;;10.40;83.10;;;;;;4999626;28;20063;-58
2022/05/03 19:04:44;;;;;;;11.60;3.28;;;10.40;83.50;;;;;;4999936;28;20322;-59
2022/05/03 19:07:10;;;;;;;9.30;2.55;;;10.30;83.70;;;;;;4998447;28;20041;-59
2022/05/03 19:09:36;;;;;;;8.75;2.50;;;10.30;83.70;;;;;;4996472;28;20112;-57
2022/05/03 19:12:02;;;;;;;9.45;3.25;;;10.20;83.70;;;;;;5001113;28;20435;-58
2022/05/03 19:14:28;;;;;;;10.82;2.53;;;10.20;83.70;;;;;;4987167;28;20041;-58
2022/05/03 19:16:55;;;;;;;10.43;2.40;;;10.10;83.80;;;;;;4992363;28;20036;-57
2022/05/03 19:19:23;;;;;;;7.15;2.45;;;10.00;83.60;;;;;;5017140;28;20044;-57
2022/05/03 19:21:50;;;;;;;11.68;2.40;;;10.00;83.60;;;;;;4985157;28;20056;-58
2022/05/03 19:32:29;;;;;;;6.32;1.85;;;9.80;83.30;;;;;;5000438;28;20291;-58
2022/05/03 19:34:55;;;;;;;11.27;2.10;;;9.80;83.90;;;;;;5009448;28;20120;-59
2022/05/03 19:37:21;;;;;;;7.65;2.42;;;9.80;84.60;;;;;;4982190;28;20492;-59
2022/05/03 19:39:47;;;;;;;8.10;2.55;;;9.80;84.40;;;;;;4985718;28;20064;-58
2022/05/03 19:42:14;;;;;;;15.73;4.72;;;9.80;84.50;;;;;;5001512;28;20412;-58
2022/05/03 19:44:40;;;;;;;11.63;3.10;;;9.80;84.50;;;;;;5002451;28;20088;-57
2022/05/03 19:47:08;;;;;;;10.88;2.72;;;9.90;84.60;;;;;;4989775;28;20045;-59
2022/05/03 19:49:34;;;;;;;8.93;2.67;;;9.80;85.20;;;;;;4990000;28;20045;-59
2022/05/03 19:52:00;;;;;;;7.60;2.90;;;9.80;85.20;;;;;;4998437;28;20033;-59
2022/05/03 19:54:25;;;;;;;11.52;2.85;;;9.80;85.40;;;;;;5007442;28;20044;-59
2022/05/03 19:56:52;;;;;;;10.05;2.97;;;9.80;86.00;;;;;;5016116;28;20045;-59
2022/05/03 19:59:19;;;;;;;7.32;2.30;;;9.90;86.50;;;;;;4996798;28;20135;-58
2022/05/03 20:01:46;;;;;;;11.93;2.92;;;9.90;87.00;;;;;;5019825;28;20081;-59
2022/05/03 20:04:12;;;;;;;11.13;2.65;;;9.90;86.80;;;;;;4999507;28;20057;-58
2022/05/03 20:06:39;;;;;;;9.27;2.60;;;9.90;86.40;;;;;;5002771;28;20029;-58
2022/05/03 20:09:05;;;;;;;12.10;2.80;;;9.90;86.70;;;;;;4996472;28;20120;-59
2022/05/03 20:11:31;;;;;;;11.55;2.90;;;9.90;86.80;;;;;;5004244;28;20502;-57
2022/05/03 20:13:56;;;;;;;12.35;3.05;;;10.00;87.00;;;;;;4995248;28;20053;-59
2022/05/03 20:16:22;;;;;;;10.27;2.63;;;9.90;87.60;;;;;;5011139;28;20049;-59
2022/05/03 20:18:48;;;;;;;12.82;2.40;;;9.90;87.70;;;;;;4998151;28;20045;-59
2022/05/03 20:21:15;;;;;;;10.38;2.55;;;10.00;88.30;;;;;;5014721;28;20516;-59
2022/05/03 20:23:43;;;;;;;10.98;3.05;;;9.90;87.50;;;;;;5004310;28;20510;-58
2022/05/03 20:26:09;;;;;;;12.45;2.15;;;9.90;87.60;;;;;;5021049;28;20052;-58
2022/05/03 20:28:34;;;;;;;7.90;2.25;;;9.80;87.50;;;;;;4990411;28;20041;-58
2022/05/03 20:31:03;;;;;;;8.38;2.28;;;9.80;87.50;;;;;;5021255;28;20408;-59
2022/05/03 20:33:29;;;;;;;10.77;2.40;;;9.80;87.20;;;;;;5001433;28;20495;-60
2022/05/03 20:35:55;;;;;;;13.43;2.83;;;9.80;87.50;;;;;;5016132;28;20593;-59
2022/05/03 20:38:21;;;;;;;13.88;3.20;;;9.80;87.80;;;;;;5001481;28;20095;-59